sensor_id;sensor_type;location;lat;lon;timestamp;P1;durP1;ratioP1;P2;durP2;ratioP2
66478;SDS011;53294;47.912;13.526;2023-04-16T00:01:44;7.15;;;5.05;;
66478;SDS011;53294;47.912;13.526;2023-04-16T00:04:10;6.68;;;4.47;;
66478;SDS011;53294;47.912;13.526;2023-04-16T00:06:37;9.02;;;5.55;;
66478;SDS011;53294;47.912;13.526;2023-04-16T00:09:04;7.85;;;5.28;;
66478;SDS011;53294;47.912;13.526;2023-04-16T00:11:31;7.82;;;5.53;;
66478;SDS011;53294;47.912;13.526;2023-04-16T00:13:57;8.30;;;5.25;;
66478;SDS011;53294;47.912;13.526;2023-04-16T00:16:24;9.95;;;5.68;;
66478;SDS011;53294;47.912;13.526;2023-04-16T00:18:51;7.68;;;5.00;;
66478;SDS011;53294;47.912;13.526;2023-04-16T00:21:17;6.72;;;4.68;;
66478;SDS011;53294;47.912;13.526;2023-04-16T00:23:44;7.30;;;5.13;;
66478;SDS011;53294;47.912;13.526;2023-04-16T00:26:11;7.03;;;4.60;;
66478;SDS011;53294;47.912;13.526;2023-04-16T00:28:38;9.52;;;4.72;;
66478;SDS011;53294;47.912;13.526;2023-04-16T00:31:04;6.57;;;4.68;;
66478;SDS011;53294;47.912;13.526;2023-04-16T00:33:31;8.02;;;5.40;;
66478;SDS011;53294;47.912;13.526;2023-04-16T00:35:58;7.38;;;4.78;;
66478;SDS011;53294;47.912;13.526;2023-04-16T00:38:24;7.10;;;4.88;;
66478;SDS011;53294;47.912;13.526;2023-04-16T00:40:55;7.20;;;4.55;;
66478;SDS011;53294;47.912;13.526;2023-04-16T00:43:24;8.38;;;4.97;;
66478;SDS011;53294;47.912;13.526;2023-04-16T00:45:52;8.38;;;5.03;;
66478;SDS011;53294;47.912;13.526;2023-04-16T00:48:22;5.93;;;4.03;;
66478;SDS011;53294;47.912;13.526;2023-04-16T00:50:48;6.40;;;4.32;;
66478;SDS011;53294;47.912;13.526;2023-04-16T00:53:15;6.22;;;3.95;;
66478;SDS011;53294;47.912;13.526;2023-04-16T00:55:42;6.45;;;3.55;;
66478;SDS011;53294;47.912;13.526;2023-04-16T00:58:09;5.65;;;3.30;;
66478;SDS011;53294;47.912;13.526;2023-04-16T01:00:36;4.75;;;3.10;;
66478;SDS011;53294;47.912;13.526;2023-04-16T01:03:03;4.93;;;3.20;;
66478;SDS011;53294;47.912;13.526;2023-04-16T01:05:30;3.92;;;2.58;;
66478;SDS011;53294;47.912;13.526;2023-04-16T01:07:57;3.75;;;2.30;;
66478;SDS011;53294;47.912;13.526;2023-04-16T01:10:26;3.47;;;2.25;;
66478;SDS011;53294;47.912;13.526;2023-04-16T01:12:53;2.75;;;1.90;;
66478;SDS011;53294;47.912;13.526;2023-04-16T01:15:19;3.50;;;1.80;;
66478;SDS011;53294;47.912;13.526;2023-04-16T01:17:46;3.53;;;1.95;;
66478;SDS011;53294;47.912;13.526;2023-04-16T01:20:13;2.80;;;1.77;;
66478;SDS011;53294;47.912;13.526;2023-04-16T01:22:40;1.63;;;1.23;;
66478;SDS011;53294;47.912;13.526;2023-04-16T01:25:06;2.55;;;1.50;;
66478;SDS011;53294;47.912;13.526;2023-04-16T01:27:33;2.67;;;1.65;;
66478;SDS011;53294;47.912;13.526;2023-04-16T01:30:00;3.30;;;1.70;;
66478;SDS011;53294;47.912;13.526;2023-04-16T01:32:26;1.88;;;1.42;;
66478;SDS011;53294;47.912;13.526;2023-04-16T01:34:56;2.35;;;1.70;;
66478;SDS011;53294;47.912;13.526;2023-04-16T01:37:23;2.30;;;1.58;;
66478;SDS011;53294;47.912;13.526;2023-04-16T01:39:50;2.45;;;1.73;;
66478;SDS011;53294;47.912;13.526;2023-04-16T01:42:16;3.72;;;1.80;;
66478;SDS011;53294;47.912;13.526;2023-04-16T01:44:43;2.25;;;1.50;;
66478;SDS011;53294;47.912;13.526;2023-04-16T01:47:12;2.38;;;1.67;;
66478;SDS011;53294;47.912;13.526;2023-04-16T01:49:38;2.30;;;1.40;;
66478;SDS011;53294;47.912;13.526;2023-04-16T01:52:05;2.78;;;1.73;;
66478;SDS011;53294;47.912;13.526;2023-04-16T01:54:33;2.60;;;1.80;;
66478;SDS011;53294;47.912;13.526;2023-04-16T01:57:00;3.20;;;1.80;;
66478;SDS011;53294;47.912;13.526;2023-04-16T01:59:27;3.72;;;1.98;;
66478;SDS011;53294;47.912;13.526;2023-04-16T02:01:53;3.42;;;2.08;;
66478;SDS011;53294;47.912;13.526;2023-04-16T02:04:20;2.17;;;1.60;;
66478;SDS011;53294;47.912;13.526;2023-04-16T02:06:47;3.63;;;2.10;;
66478;SDS011;53294;47.912;13.526;2023-04-16T02:09:14;4.13;;;2.30;;
66478;SDS011;53294;47.912;13.526;2023-04-16T02:11:40;3.65;;;2.00;;
66478;SDS011;53294;47.912;13.526;2023-04-16T02:14:07;3.30;;;2.15;;
66478;SDS011;53294;47.912;13.526;2023-04-16T02:16:34;3.97;;;2.30;;
66478;SDS011;53294;47.912;13.526;2023-04-16T02:19:01;4.18;;;2.30;;
66478;SDS011;53294;47.912;13.526;2023-04-16T02:21:29;3.55;;;2.25;;
66478;SDS011;53294;47.912;13.526;2023-04-16T02:23:56;4.70;;;2.10;;
66478;SDS011;53294;47.912;13.526;2023-04-16T02:26:23;4.15;;;2.10;;
66478;SDS011;53294;47.912;13.526;2023-04-16T02:28:51;4.47;;;1.83;;
66478;SDS011;53294;47.912;13.526;2023-04-16T02:31:18;2.58;;;1.75;;
66478;SDS011;53294;47.912;13.526;2023-04-16T02:33:44;3.05;;;1.67;;
66478;SDS011;53294;47.912;13.526;2023-04-16T02:36:11;2.25;;;1.40;;
66478;SDS011;53294;47.912;13.526;2023-04-16T02:38:38;2.15;;;1.48;;
66478;SDS011;53294;47.912;13.526;2023-04-16T02:41:04;1.77;;;1.40;;
66478;SDS011;53294;47.912;13.526;2023-04-16T02:43:31;2.13;;;1.38;;
66478;SDS011;53294;47.912;13.526;2023-04-16T02:45:58;1.70;;;1.20;;
66478;SDS011;53294;47.912;13.526;2023-04-16T02:48:25;1.42;;;1.13;;
66478;SDS011;53294;47.912;13.526;2023-04-16T02:50:51;1.55;;;1.30;;
66478;SDS011;53294;47.912;13.526;2023-04-16T02:53:18;1.17;;;1.08;;
66478;SDS011;53294;47.912;13.526;2023-04-16T02:55:54;1.60;;;1.20;;
66478;SDS011;53294;47.912;13.526;2023-04-16T02:58:21;1.17;;;1.02;;
66478;SDS011;53294;47.912;13.526;2023-04-16T03:00:49;1.20;;;1.10;;
66478;SDS011;53294;47.912;13.526;2023-04-16T03:03:17;1.30;;;1.20;;
66478;SDS011;53294;47.912;13.526;2023-04-16T03:05:44;1.35;;;1.10;;
66478;SDS011;53294;47.912;13.526;2023-04-16T03:08:10;1.55;;;1.30;;
66478;SDS011;53294;47.912;13.526;2023-04-16T03:10:37;2.22;;;1.40;;
66478;SDS011;53294;47.912;13.526;2023-04-16T03:13:04;1.65;;;1.20;;
66478;SDS011;53294;47.912;13.526;2023-04-16T03:15:31;1.20;;;0.95;;
66478;SDS011;53294;47.912;13.526;2023-04-16T03:17:57;2.05;;;1.08;;
66478;SDS011;53294;47.912;13.526;2023-04-16T03:20:25;1.00;;;0.90;;
66478;SDS011;53294;47.912;13.526;2023-04-16T03:22:52;0.90;;;0.90;;
66478;SDS011;53294;47.912;13.526;2023-04-16T03:25:18;1.60;;;1.00;;
66478;SDS011;53294;47.912;13.526;2023-04-16T03:27:45;2.70;;;1.30;;
66478;SDS011;53294;47.912;13.526;2023-04-16T03:30:12;2.13;;;1.15;;
66478;SDS011;53294;47.912;13.526;2023-04-16T03:32:39;1.70;;;1.25;;
66478;SDS011;53294;47.912;13.526;2023-04-16T03:35:07;1.58;;;1.25;;
66478;SDS011;53294;47.912;13.526;2023-04-16T03:37:34;1.73;;;1.20;;
66478;SDS011;53294;47.912;13.526;2023-04-16T03:40:01;1.70;;;1.20;;
66478;SDS011;53294;47.912;13.526;2023-04-16T03:42:28;1.45;;;0.90;;
66478;SDS011;53294;47.912;13.526;2023-04-16T03:44:55;1.17;;;0.90;;
66478;SDS011;53294;47.912;13.526;2023-04-16T03:47:22;1.13;;;1.00;;
66478;SDS011;53294;47.912;13.526;2023-04-16T03:49:49;1.38;;;1.27;;
66478;SDS011;53294;47.912;13.526;2023-04-16T03:52:16;1.25;;;0.93;;
66478;SDS011;53294;47.912;13.526;2023-04-16T03:54:42;0.85;;;0.85;;
66478;SDS011;53294;47.912;13.526;2023-04-16T03:57:09;0.70;;;0.70;;
66478;SDS011;53294;47.912;13.526;2023-04-16T03:59:36;0.73;;;0.73;;
66478;SDS011;53294;47.912;13.526;2023-04-16T04:02:02;0.73;;;0.68;;
66478;SDS011;53294;47.912;13.526;2023-04-16T04:04:29;0.95;;;0.70;;
66478;SDS011;53294;47.912;13.526;2023-04-16T04:06:56;1.05;;;0.80;;
66478;SDS011;53294;47.912;13.526;2023-04-16T04:09:22;1.00;;;0.90;;
66478;SDS011;53294;47.912;13.526;2023-04-16T04:11:49;1.02;;;0.77;;
66478;SDS011;53294;47.912;13.526;2023-04-16T04:14:16;0.80;;;0.80;;
66478;SDS011;53294;47.912;13.526;2023-04-16T04:16:42;0.68;;;0.68;;
66478;SDS011;53294;47.912;13.526;2023-04-16T04:19:09;1.05;;;1.02;;
66478;SDS011;53294;47.912;13.526;2023-04-16T04:21:37;0.80;;;0.80;;
66478;SDS011;53294;47.912;13.526;2023-04-16T04:24:03;0.68;;;0.68;;
66478;SDS011;53294;47.912;13.526;2023-04-16T04:26:30;0.52;;;0.52;;
66478;SDS011;53294;47.912;13.526;2023-04-16T04:28:57;0.70;;;0.70;;
66478;SDS011;53294;47.912;13.526;2023-04-16T04:31:23;0.60;;;0.60;;
66478;SDS011;53294;47.912;13.526;2023-04-16T04:33:50;0.60;;;0.60;;
66478;SDS011;53294;47.912;13.526;2023-04-16T04:36:17;1.25;;;0.75;;
66478;SDS011;53294;47.912;13.526;2023-04-16T04:38:43;0.80;;;0.77;;
66478;SDS011;53294;47.912;13.526;2023-04-16T04:41:10;1.00;;;0.73;;
66478;SDS011;53294;47.912;13.526;2023-04-16T04:43:37;0.90;;;0.90;;
66478;SDS011;53294;47.912;13.526;2023-04-16T04:46:04;0.90;;;0.90;;
66478;SDS011;53294;47.912;13.526;2023-04-16T04:48:30;0.70;;;0.70;;
66478;SDS011;53294;47.912;13.526;2023-04-16T04:50:57;1.33;;;0.98;;
66478;SDS011;53294;47.912;13.526;2023-04-16T04:53:24;0.82;;;0.80;;
66478;SDS011;53294;47.912;13.526;2023-04-16T04:55:50;0.70;;;0.70;;
66478;SDS011;53294;47.912;13.526;2023-04-16T04:58:22;0.50;;;0.50;;
66478;SDS011;53294;47.912;13.526;2023-04-16T05:00:49;0.90;;;0.75;;
66478;SDS011;53294;47.912;13.526;2023-04-16T05:03:18;0.60;;;0.60;;
66478;SDS011;53294;47.912;13.526;2023-04-16T05:05:46;0.73;;;0.70;;
66478;SDS011;53294;47.912;13.526;2023-04-16T05:08:13;0.60;;;0.60;;
66478;SDS011;53294;47.912;13.526;2023-04-16T05:10:40;0.65;;;0.60;;
66478;SDS011;53294;47.912;13.526;2023-04-16T05:13:06;0.70;;;0.70;;
66478;SDS011;53294;47.912;13.526;2023-04-16T05:15:33;0.68;;;0.60;;
66478;SDS011;53294;47.912;13.526;2023-04-16T05:18:00;0.60;;;0.60;;
66478;SDS011;53294;47.912;13.526;2023-04-16T05:20:26;0.80;;;0.80;;
66478;SDS011;53294;47.912;13.526;2023-04-16T05:22:53;0.80;;;0.80;;
66478;SDS011;53294;47.912;13.526;2023-04-16T05:25:20;0.85;;;0.80;;
66478;SDS011;53294;47.912;13.526;2023-04-16T05:27:47;1.15;;;1.05;;
66478;SDS011;53294;47.912;13.526;2023-04-16T05:30:14;1.20;;;1.10;;
66478;SDS011;53294;47.912;13.526;2023-04-16T05:32:41;1.00;;;0.93;;
66478;SDS011;53294;47.912;13.526;2023-04-16T05:35:07;1.55;;;1.30;;
66478;SDS011;53294;47.912;13.526;2023-04-16T05:37:35;1.77;;;1.33;;
66478;SDS011;53294;47.912;13.526;2023-04-16T05:40:01;1.17;;;1.00;;
66478;SDS011;53294;47.912;13.526;2023-04-16T05:42:29;1.80;;;1.20;;
66478;SDS011;53294;47.912;13.526;2023-04-16T05:44:56;1.52;;;1.30;;
66478;SDS011;53294;47.912;13.526;2023-04-16T05:47:23;1.75;;;1.50;;
66478;SDS011;53294;47.912;13.526;2023-04-16T05:49:50;1.42;;;1.30;;
66478;SDS011;53294;47.912;13.526;2023-04-16T05:52:16;1.80;;;1.20;;
66478;SDS011;53294;47.912;13.526;2023-04-16T05:54:43;1.10;;;1.00;;
66478;SDS011;53294;47.912;13.526;2023-04-16T05:57:10;1.35;;;1.17;;
66478;SDS011;53294;47.912;13.526;2023-04-16T05:59:37;1.52;;;1.20;;
66478;SDS011;53294;47.912;13.526;2023-04-16T06:02:03;2.20;;;1.40;;
66478;SDS011;53294;47.912;13.526;2023-04-16T06:04:30;1.23;;;1.13;;
66478;SDS011;53294;47.912;13.526;2023-04-16T06:06:57;2.30;;;1.60;;
66478;SDS011;53294;47.912;13.526;2023-04-16T06:09:23;2.88;;;1.52;;
66478;SDS011;53294;47.912;13.526;2023-04-16T06:11:50;1.90;;;1.38;;
66478;SDS011;53294;47.912;13.526;2023-04-16T06:14:16;1.45;;;1.20;;
66478;SDS011;53294;47.912;13.526;2023-04-16T06:16:43;1.60;;;1.30;;
66478;SDS011;53294;47.912;13.526;2023-04-16T06:19:10;1.70;;;1.35;;
66478;SDS011;53294;47.912;13.526;2023-04-16T06:21:37;1.75;;;1.23;;
66478;SDS011;53294;47.912;13.526;2023-04-16T06:24:04;1.50;;;1.20;;
66478;SDS011;53294;47.912;13.526;2023-04-16T06:26:31;5.43;;;2.97;;
66478;SDS011;53294;47.912;13.526;2023-04-16T06:28:58;2.75;;;1.60;;
66478;SDS011;53294;47.912;13.526;2023-04-16T06:31:24;2.28;;;1.60;;
66478;SDS011;53294;47.912;13.526;2023-04-16T06:33:51;2.40;;;1.50;;
66478;SDS011;53294;47.912;13.526;2023-04-16T06:36:18;2.38;;;1.60;;
66478;SDS011;53294;47.912;13.526;2023-04-16T06:38:44;3.05;;;1.75;;
66478;SDS011;53294;47.912;13.526;2023-04-16T06:41:12;2.10;;;1.58;;
66478;SDS011;53294;47.912;13.526;2023-04-16T06:43:39;3.70;;;1.70;;
66478;SDS011;53294;47.912;13.526;2023-04-16T06:46:06;2.55;;;1.83;;
66478;SDS011;53294;47.912;13.526;2023-04-16T06:48:33;4.18;;;2.25;;
66478;SDS011;53294;47.912;13.526;2023-04-16T06:50:59;3.40;;;2.00;;
66478;SDS011;53294;47.912;13.526;2023-04-16T06:53:26;3.20;;;2.28;;
66478;SDS011;53294;47.912;13.526;2023-04-16T06:55:53;3.90;;;2.00;;
66478;SDS011;53294;47.912;13.526;2023-04-16T06:58:20;3.90;;;2.35;;
66478;SDS011;53294;47.912;13.526;2023-04-16T07:00:47;3.78;;;2.60;;
66478;SDS011;53294;47.912;13.526;2023-04-16T07:03:14;3.80;;;2.35;;
66478;SDS011;53294;47.912;13.526;2023-04-16T07:05:41;3.08;;;2.08;;
66478;SDS011;53294;47.912;13.526;2023-04-16T07:08:08;3.42;;;2.38;;
66478;SDS011;53294;47.912;13.526;2023-04-16T07:10:34;3.33;;;2.00;;
66478;SDS011;53294;47.912;13.526;2023-04-16T07:13:01;3.17;;;1.95;;
66478;SDS011;53294;47.912;13.526;2023-04-16T07:15:28;3.53;;;1.75;;
66478;SDS011;53294;47.912;13.526;2023-04-16T07:17:54;2.28;;;1.75;;
66478;SDS011;53294;47.912;13.526;2023-04-16T07:20:21;3.83;;;1.67;;
66478;SDS011;53294;47.912;13.526;2023-04-16T07:22:48;2.53;;;1.70;;
66478;SDS011;53294;47.912;13.526;2023-04-16T07:25:15;2.30;;;1.63;;
66478;SDS011;53294;47.912;13.526;2023-04-16T07:27:41;1.73;;;1.45;;
66478;SDS011;53294;47.912;13.526;2023-04-16T07:30:08;1.60;;;1.30;;
66478;SDS011;53294;47.912;13.526;2023-04-16T07:32:35;4.05;;;1.42;;
66478;SDS011;53294;47.912;13.526;2023-04-16T07:35:01;1.55;;;1.35;;
66478;SDS011;53294;47.912;13.526;2023-04-16T07:37:29;1.38;;;1.20;;
66478;SDS011;53294;47.912;13.526;2023-04-16T07:39:56;2.33;;;1.38;;
66478;SDS011;53294;47.912;13.526;2023-04-16T07:42:23;1.63;;;1.30;;
66478;SDS011;53294;47.912;13.526;2023-04-16T07:44:50;1.40;;;0.98;;
66478;SDS011;53294;47.912;13.526;2023-04-16T07:47:17;1.17;;;1.08;;
66478;SDS011;53294;47.912;13.526;2023-04-16T07:49:44;1.50;;;1.17;;
66478;SDS011;53294;47.912;13.526;2023-04-16T07:52:10;3.10;;;1.30;;
66478;SDS011;53294;47.912;13.526;2023-04-16T07:54:37;1.45;;;1.15;;
66478;SDS011;53294;47.912;13.526;2023-04-16T07:57:04;2.25;;;1.30;;
66478;SDS011;53294;47.912;13.526;2023-04-16T07:59:30;1.55;;;1.30;;
66478;SDS011;53294;47.912;13.526;2023-04-16T08:01:57;1.88;;;1.23;;
66478;SDS011;53294;47.912;13.526;2023-04-16T08:04:24;1.85;;;1.20;;
66478;SDS011;53294;47.912;13.526;2023-04-16T08:06:52;1.58;;;1.25;;
66478;SDS011;53294;47.912;13.526;2023-04-16T08:09:22;1.85;;;1.15;;
66478;SDS011;53294;47.912;13.526;2023-04-16T08:11:51;2.30;;;1.30;;
66478;SDS011;53294;47.912;13.526;2023-04-16T08:14:18;1.30;;;1.20;;
66478;SDS011;53294;47.912;13.526;2023-04-16T08:16:45;1.02;;;1.00;;
66478;SDS011;53294;47.912;13.526;2023-04-16T08:19:12;2.80;;;1.38;;
66478;SDS011;53294;47.912;13.526;2023-04-16T08:21:39;1.77;;;1.42;;
66478;SDS011;53294;47.912;13.526;2023-04-16T08:24:05;1.92;;;1.38;;
66478;SDS011;53294;47.912;13.526;2023-04-16T08:26:32;1.20;;;1.10;;
66478;SDS011;53294;47.912;13.526;2023-04-16T08:28:59;1.38;;;1.13;;
66478;SDS011;53294;47.912;13.526;2023-04-16T08:31:25;1.58;;;1.20;;
66478;SDS011;53294;47.912;13.526;2023-04-16T08:33:52;4.07;;;2.10;;
66478;SDS011;53294;47.912;13.526;2023-04-16T08:36:19;2.88;;;1.90;;
66478;SDS011;53294;47.912;13.526;2023-04-16T08:38:46;2.72;;;1.67;;
66478;SDS011;53294;47.912;13.526;2023-04-16T08:41:12;2.22;;;1.60;;
66478;SDS011;53294;47.912;13.526;2023-04-16T08:43:43;1.63;;;1.23;;
66478;SDS011;53294;47.912;13.526;2023-04-16T08:46:11;1.30;;;1.20;;
66478;SDS011;53294;47.912;13.526;2023-04-16T08:48:37;2.88;;;1.10;;
66478;SDS011;53294;47.912;13.526;2023-04-16T08:51:08;1.77;;;1.13;;
66478;SDS011;53294;47.912;13.526;2023-04-16T08:53:51;1.10;;;1.00;;
66478;SDS011;53294;47.912;13.526;2023-04-16T08:56:20;1.10;;;1.00;;
66478;SDS011;53294;47.912;13.526;2023-04-16T08:58:49;1.00;;;0.90;;
66478;SDS011;53294;47.912;13.526;2023-04-16T09:01:17;0.90;;;0.90;;
66478;SDS011;53294;47.912;13.526;2023-04-16T09:03:47;0.98;;;0.88;;
66478;SDS011;53294;47.912;13.526;2023-04-16T09:06:14;1.52;;;1.20;;
66478;SDS011;53294;47.912;13.526;2023-04-16T09:08:43;0.80;;;0.80;;
66478;SDS011;53294;47.912;13.526;2023-04-16T09:11:13;1.10;;;1.00;;
66478;SDS011;53294;47.912;13.526;2023-04-16T09:13:43;1.48;;;1.05;;
66478;SDS011;53294;47.912;13.526;2023-04-16T09:16:11;1.13;;;0.88;;
66478;SDS011;53294;47.912;13.526;2023-04-16T09:18:39;1.05;;;0.88;;
66478;SDS011;53294;47.912;13.526;2023-04-16T09:21:08;1.05;;;0.95;;
66478;SDS011;53294;47.912;13.526;2023-04-16T09:23:36;1.80;;;1.10;;
66478;SDS011;53294;47.912;13.526;2023-04-16T09:26:06;1.15;;;0.90;;
66478;SDS011;53294;47.912;13.526;2023-04-16T09:28:42;1.40;;;0.95;;
66478;SDS011;53294;47.912;13.526;2023-04-16T09:31:15;1.10;;;1.00;;
66478;SDS011;53294;47.912;13.526;2023-04-16T09:33:43;1.00;;;0.90;;
66478;SDS011;53294;47.912;13.526;2023-04-16T09:36:25;0.70;;;0.70;;
66478;SDS011;53294;47.912;13.526;2023-04-16T09:38:53;1.45;;;0.80;;
66478;SDS011;53294;47.912;13.526;2023-04-16T09:41:26;0.98;;;0.88;;
66478;SDS011;53294;47.912;13.526;2023-04-16T09:44:00;0.80;;;0.80;;
66478;SDS011;53294;47.912;13.526;2023-04-16T09:46:29;1.02;;;0.93;;
66478;SDS011;53294;47.912;13.526;2023-04-16T09:49:08;1.80;;;0.90;;
66478;SDS011;53294;47.912;13.526;2023-04-16T09:51:46;1.10;;;0.90;;
66478;SDS011;53294;47.912;13.526;2023-04-16T09:54:18;1.08;;;1.00;;
66478;SDS011;53294;47.912;13.526;2023-04-16T09:56:45;1.00;;;0.90;;
66478;SDS011;53294;47.912;13.526;2023-04-16T09:59:18;0.60;;;0.60;;
66478;SDS011;53294;47.912;13.526;2023-04-16T10:01:46;0.70;;;0.70;;
66478;SDS011;53294;47.912;13.526;2023-04-16T10:04:15;0.98;;;0.70;;
66478;SDS011;53294;47.912;13.526;2023-04-16T10:06:42;0.95;;;0.80;;
66478;SDS011;53294;47.912;13.526;2023-04-16T10:09:09;1.05;;;0.95;;
66478;SDS011;53294;47.912;13.526;2023-04-16T10:11:36;0.98;;;0.70;;
66478;SDS011;53294;47.912;13.526;2023-04-16T10:14:03;0.70;;;0.70;;
66478;SDS011;53294;47.912;13.526;2023-04-16T10:16:31;1.00;;;0.80;;
66478;SDS011;53294;47.912;13.526;2023-04-16T10:18:58;0.70;;;0.70;;
66478;SDS011;53294;47.912;13.526;2023-04-16T10:21:25;0.68;;;0.65;;
66478;SDS011;53294;47.912;13.526;2023-04-16T10:23:59;2.08;;;0.90;;
66478;SDS011;53294;47.912;13.526;2023-04-16T10:26:28;0.93;;;0.70;;
66478;SDS011;53294;47.912;13.526;2023-04-16T10:28:56;1.10;;;0.85;;
66478;SDS011;53294;47.912;13.526;2023-04-16T10:31:23;1.00;;;0.80;;
66478;SDS011;53294;47.912;13.526;2023-04-16T10:33:52;1.00;;;0.90;;
66478;SDS011;53294;47.912;13.526;2023-04-16T10:36:23;0.70;;;0.70;;
66478;SDS011;53294;47.912;13.526;2023-04-16T10:38:52;1.52;;;1.05;;
66478;SDS011;53294;47.912;13.526;2023-04-16T10:41:24;0.85;;;0.80;;
66478;SDS011;53294;47.912;13.526;2023-04-16T10:43:52;0.80;;;0.80;;
66478;SDS011;53294;47.912;13.526;2023-04-16T10:46:22;0.77;;;0.68;;
66478;SDS011;53294;47.912;13.526;2023-04-16T10:48:52;0.68;;;0.68;;
66478;SDS011;53294;47.912;13.526;2023-04-16T10:53:52;1.00;;;0.82;;
66478;SDS011;53294;47.912;13.526;2023-04-16T10:56:24;1.25;;;0.90;;
66478;SDS011;53294;47.912;13.526;2023-04-16T10:58:53;1.02;;;0.85;;
66478;SDS011;53294;47.912;13.526;2023-04-16T11:01:32;1.05;;;0.80;;
66478;SDS011;53294;47.912;13.526;2023-04-16T11:04:01;0.90;;;0.90;;
66478;SDS011;53294;47.912;13.526;2023-04-16T11:12:16;0.90;;;0.90;;
66478;SDS011;53294;47.912;13.526;2023-04-16T11:14:51;1.17;;;1.00;;
66478;SDS011;53294;47.912;13.526;2023-04-16T11:17:19;1.95;;;0.88;;
66478;SDS011;53294;47.912;13.526;2023-04-16T11:19:47;1.02;;;0.80;;
66478;SDS011;53294;47.912;13.526;2023-04-16T11:22:14;1.35;;;1.20;;
66478;SDS011;53294;47.912;13.526;2023-04-16T11:24:43;1.00;;;0.90;;
66478;SDS011;53294;47.912;13.526;2023-04-16T11:27:13;1.15;;;0.88;;
66478;SDS011;53294;47.912;13.526;2023-04-16T11:29:40;1.00;;;0.70;;
66478;SDS011;53294;47.912;13.526;2023-04-16T11:32:07;1.02;;;0.90;;
66478;SDS011;53294;47.912;13.526;2023-04-16T11:34:41;0.73;;;0.70;;
66478;SDS011;53294;47.912;13.526;2023-04-16T11:37:08;1.42;;;1.17;;
66478;SDS011;53294;47.912;13.526;2023-04-16T11:39:46;0.90;;;0.90;;
66478;SDS011;53294;47.912;13.526;2023-04-16T11:42:17;2.05;;;0.90;;
66478;SDS011;53294;47.912;13.526;2023-04-16T11:44:45;1.70;;;0.80;;
66478;SDS011;53294;47.912;13.526;2023-04-16T11:47:11;1.85;;;0.90;;
66478;SDS011;53294;47.912;13.526;2023-04-16T11:49:39;0.70;;;0.70;;
66478;SDS011;53294;47.912;13.526;2023-04-16T11:52:05;0.70;;;0.70;;
66478;SDS011;53294;47.912;13.526;2023-04-16T11:54:32;0.50;;;0.50;;
66478;SDS011;53294;47.912;13.526;2023-04-16T11:57:00;0.60;;;0.60;;
66478;SDS011;53294;47.912;13.526;2023-04-16T11:59:29;0.98;;;0.90;;
66478;SDS011;53294;47.912;13.526;2023-04-16T12:01:56;1.13;;;0.80;;
66478;SDS011;53294;47.912;13.526;2023-04-16T12:04:26;1.45;;;0.93;;
66478;SDS011;53294;47.912;13.526;2023-04-16T12:07:09;0.60;;;0.60;;
66478;SDS011;53294;47.912;13.526;2023-04-16T12:09:37;1.23;;;0.80;;
66478;SDS011;53294;47.912;13.526;2023-04-16T12:12:24;0.65;;;0.60;;
66478;SDS011;53294;47.912;13.526;2023-04-16T12:14:52;0.68;;;0.68;;
66478;SDS011;53294;47.912;13.526;2023-04-16T12:17:20;0.55;;;0.55;;
66478;SDS011;53294;47.912;13.526;2023-04-16T12:19:47;1.45;;;0.70;;
66478;SDS011;53294;47.912;13.526;2023-04-16T12:22:17;0.80;;;0.70;;
66478;SDS011;53294;47.912;13.526;2023-04-16T12:24:54;0.73;;;0.70;;
66478;SDS011;53294;47.912;13.526;2023-04-16T12:27:22;0.73;;;0.70;;
66478;SDS011;53294;47.912;13.526;2023-04-16T12:30:03;0.98;;;0.88;;
66478;SDS011;53294;47.912;13.526;2023-04-16T12:32:32;0.68;;;0.68;;
66478;SDS011;53294;47.912;13.526;2023-04-16T12:34:59;0.85;;;0.70;;
66478;SDS011;53294;47.912;13.526;2023-04-16T12:37:25;2.88;;;0.95;;
66478;SDS011;53294;47.912;13.526;2023-04-16T12:39:53;0.82;;;0.80;;
66478;SDS011;53294;47.912;13.526;2023-04-16T12:42:20;0.90;;;0.82;;
66478;SDS011;53294;47.912;13.526;2023-04-16T12:44:47;1.67;;;0.95;;
66478;SDS011;53294;47.912;13.526;2023-04-16T12:47:13;3.58;;;2.15;;
66478;SDS011;53294;47.912;13.526;2023-04-16T12:49:40;1.50;;;0.88;;
66478;SDS011;53294;47.912;13.526;2023-04-16T12:52:07;0.68;;;0.68;;
66478;SDS011;53294;47.912;13.526;2023-04-16T12:54:33;1.02;;;0.90;;
66478;SDS011;53294;47.912;13.526;2023-04-16T12:57:00;1.33;;;0.80;;
66478;SDS011;53294;47.912;13.526;2023-04-16T12:59:27;0.70;;;0.70;;
66478;SDS011;53294;47.912;13.526;2023-04-16T13:01:53;1.92;;;0.82;;
66478;SDS011;53294;47.912;13.526;2023-04-16T13:04:20;1.15;;;1.10;;
66478;SDS011;53294;47.912;13.526;2023-04-16T13:06:50;1.30;;;0.70;;
66478;SDS011;53294;47.912;13.526;2023-04-16T13:09:17;1.00;;;0.80;;
66478;SDS011;53294;47.912;13.526;2023-04-16T13:11:45;1.30;;;0.60;;
66478;SDS011;53294;47.912;13.526;2023-04-16T13:14:12;1.05;;;0.80;;
66478;SDS011;53294;47.912;13.526;2023-04-16T13:16:38;1.25;;;0.90;;
66478;SDS011;53294;47.912;13.526;2023-04-16T13:19:05;0.75;;;0.70;;
66478;SDS011;53294;47.912;13.526;2023-04-16T13:21:32;0.77;;;0.70;;
66478;SDS011;53294;47.912;13.526;2023-04-16T13:23:59;1.58;;;1.00;;
66478;SDS011;53294;47.912;13.526;2023-04-16T13:26:26;2.47;;;1.05;;
66478;SDS011;53294;47.912;13.526;2023-04-16T13:28:52;0.95;;;0.90;;
66478;SDS011;53294;47.912;13.526;2023-04-16T13:31:20;1.35;;;0.90;;
66478;SDS011;53294;47.912;13.526;2023-04-16T13:33:47;1.40;;;0.90;;
66478;SDS011;53294;47.912;13.526;2023-04-16T13:36:14;1.98;;;1.00;;
66478;SDS011;53294;47.912;13.526;2023-04-16T13:38:40;1.70;;;0.90;;
66478;SDS011;53294;47.912;13.526;2023-04-16T13:41:07;1.35;;;0.82;;
66478;SDS011;53294;47.912;13.526;2023-04-16T13:43:34;1.38;;;0.95;;
66478;SDS011;53294;47.912;13.526;2023-04-16T13:46:00;1.33;;;0.95;;
66478;SDS011;53294;47.912;13.526;2023-04-16T13:48:28;1.05;;;0.95;;
66478;SDS011;53294;47.912;13.526;2023-04-16T13:50:54;0.95;;;0.82;;
66478;SDS011;53294;47.912;13.526;2023-04-16T13:53:21;1.02;;;0.90;;
66478;SDS011;53294;47.912;13.526;2023-04-16T13:55:48;0.98;;;0.90;;
66478;SDS011;53294;47.912;13.526;2023-04-16T13:58:15;1.30;;;1.10;;
66478;SDS011;53294;47.912;13.526;2023-04-16T14:00:41;1.10;;;0.82;;
66478;SDS011;53294;47.912;13.526;2023-04-16T14:03:08;1.00;;;0.90;;
66478;SDS011;53294;47.912;13.526;2023-04-16T14:05:36;1.10;;;1.00;;
66478;SDS011;53294;47.912;13.526;2023-04-16T14:08:02;1.02;;;0.90;;
66478;SDS011;53294;47.912;13.526;2023-04-16T14:10:29;0.80;;;0.80;;
66478;SDS011;53294;47.912;13.526;2023-04-16T14:12:56;1.33;;;1.00;;
66478;SDS011;53294;47.912;13.526;2023-04-16T14:15:23;1.67;;;1.17;;
66478;SDS011;53294;47.912;13.526;2023-04-16T14:17:52;1.10;;;1.00;;
66478;SDS011;53294;47.912;13.526;2023-04-16T14:20:19;0.93;;;0.85;;
66478;SDS011;53294;47.912;13.526;2023-04-16T14:22:46;1.08;;;0.98;;
66478;SDS011;53294;47.912;13.526;2023-04-16T14:25:12;2.15;;;1.10;;
66478;SDS011;53294;47.912;13.526;2023-04-16T14:27:39;1.20;;;1.10;;
66478;SDS011;53294;47.912;13.526;2023-04-16T14:30:06;1.38;;;1.08;;
66478;SDS011;53294;47.912;13.526;2023-04-16T14:32:33;1.08;;;0.93;;
66478;SDS011;53294;47.912;13.526;2023-04-16T14:35:01;1.30;;;1.08;;
66478;SDS011;53294;47.912;13.526;2023-04-16T14:37:28;1.48;;;1.30;;
66478;SDS011;53294;47.912;13.526;2023-04-16T14:39:55;1.33;;;1.10;;
66478;SDS011;53294;47.912;13.526;2023-04-16T14:42:21;1.20;;;1.10;;
66478;SDS011;53294;47.912;13.526;2023-04-16T14:44:48;1.70;;;1.23;;